Time;durP1;ratioP1;P1;durP2;ratioP2;P2;SDS_P1;SDS_P2;PMS_P1;PMS_P2;Temp;Humidity;BMP_temperature;BMP_pressure;BME280_temperature;BME280_humidity;BME280_pressure;Samples;Min_cycle;Max_cycle;Signal;HPM_P1;HPM_P2
2022/02/14 00:02:12;;;;;;;39.53;7.70;;;;;;;;;;5071474;28;20398;-75
2022/02/14 00:04:38;;;;;;;34.28;8.60;;;;;;;;;;5071253;28;20052;-75
2022/02/14 00:07:04;;;;;;;30.60;8.25;;;;;;;;;;5071579;28;20060;-75
2022/02/14 00:09:30;;;;;;;32.58;8.52;;;;;;;;;;5072243;28;20037;-75
2022/02/14 00:11:56;;;;;;;35.40;8.13;;;;;;;;;;5071449;28;20028;-75
2022/02/14 00:14:23;;;;;;;35.35;8.43;;;;;;;;;;5053698;28;20029;-75
2022/02/14 00:16:49;;;;;;;32.00;8.27;;;;;;;;;;5072122;28;20017;-75
2022/02/14 00:19:15;;;;;;;33.03;7.82;;;;;;;;;;5069423;28;20024;-75
2022/02/14 00:21:41;;;;;;;32.90;7.78;;;;;;;;;;5091598;28;20035;-75
2022/02/14 00:24:09;;;;;;;29.40;7.60;;;;;;;;;;5073418;28;20032;-75
2022/02/14 00:26:35;;;;;;;33.13;8.48;;;;;;;;;;5092029;28;20034;-75
2022/02/14 00:29:01;;;;;;;38.22;7.75;;;;;;;;;;5092100;28;20032;-75
2022/02/14 00:31:27;;;;;;;32.85;7.57;;;;;;;;;;5091259;28;20024;-75
2022/02/14 00:33:53;;;;;;;29.25;7.70;;;;;;;;;;5091841;28;20077;-75
2022/02/14 00:36:20;;;;;;;34.33;8.38;;;;;;;;;;5092172;28;20103;-75
2022/02/14 00:38:46;;;;;;;28.92;8.00;;;;;;;;;;5065881;28;20024;-75
2022/02/14 00:41:12;;;;;;;35.72;7.70;;;;;;;;;;5071585;28;20024;-75
2022/02/14 00:43:38;;;;;;;30.88;8.05;;;;;;;;;;5070892;28;20028;-75
2022/02/14 00:46:04;;;;;;;38.60;8.32;;;;;;;;;;5071260;28;20455;-75
2022/02/14 00:48:30;;;;;;;31.83;8.50;;;;;;;;;;5071338;28;20158;-75
2022/02/14 00:50:56;;;;;;;34.67;8.30;;;;;;;;;;5071859;28;20029;-75
2022/02/14 00:53:24;;;;;;;36.38;9.10;;;;;;;;;;5071403;28;20304;-75
2022/02/14 00:55:50;;;;;;;41.47;8.85;;;;;;;;;;5071805;28;20096;-75
2022/02/14 00:58:16;;;;;;;40.80;9.82;;;;;;;;;;5071416;28;20078;-75
2022/02/14 01:00:43;;;;;;;36.83;8.65;;;;;;;;;;5072916;28;20101;-75
2022/02/14 01:03:45;;;;;;;37.00;8.50;;;;;;;;;;5074845;28;20032;-75
2022/02/14 01:06:12;;;;;;;39.03;8.50;;;;;;;;;;5054860;28;20118;-75
2022/02/14 01:08:38;;;;;;;33.00;7.93;;;;;;;;;;5069448;28;20111;-75
2022/02/14 01:11:04;;;;;;;35.83;8.80;;;;;;;;;;5066742;28;20021;-75
2022/02/14 01:13:30;;;;;;;35.67;8.18;;;;;;;;;;5054140;28;20044;-75
2022/02/14 01:15:56;;;;;;;38.63;8.85;;;;;;;;;;5036791;28;20520;-75
2022/02/14 01:18:22;;;;;;;38.28;8.63;;;;;;;;;;5054904;28;20391;-74
2022/02/14 01:20:49;;;;;;;32.92;8.88;;;;;;;;;;5036616;28;20021;-74
2022/02/14 01:23:15;;;;;;;33.28;8.63;;;;;;;;;;5054301;28;20037;-74
2022/02/14 01:25:41;;;;;;;32.28;8.45;;;;;;;;;;5054258;28;20029;-74
2022/02/14 01:28:07;;;;;;;36.28;8.18;;;;;;;;;;5036836;28;20056;-74
2022/02/14 01:30:33;;;;;;;35.55;8.30;;;;;;;;;;5055020;28;20031;-74
2022/02/14 01:33:00;;;;;;;37.70;7.93;;;;;;;;;;5054357;28;20032;-74
2022/02/14 01:35:27;;;;;;;38.83;8.30;;;;;;;;;;5036337;28;20547;-74
2022/02/14 01:37:53;;;;;;;33.08;8.23;;;;;;;;;;5054278;28;20399;-74
2022/02/14 01:40:19;;;;;;;41.60;8.75;;;;;;;;;;5054718;28;20024;-74
2022/02/14 01:42:45;;;;;;;29.92;8.13;;;;;;;;;;5063478;28;20025;-75
2022/02/14 01:45:11;;;;;;;34.97;7.78;;;;;;;;;;5053915;28;20032;-74
2022/02/14 01:47:38;;;;;;;33.78;8.13;;;;;;;;;;5054581;28;20040;-74
2022/02/14 01:50:04;;;;;;;38.58;8.63;;;;;;;;;;5036299;28;20017;-75
2022/02/14 01:52:31;;;;;;;39.50;9.10;;;;;;;;;;5054000;28;20025;-74
2022/02/14 01:54:59;;;;;;;37.97;8.52;;;;;;;;;;5036219;28;20483;-75
2022/02/14 01:57:25;;;;;;;37.53;8.60;;;;;;;;;;5036341;28;20064;-75
2022/02/14 01:59:51;;;;;;;44.75;8.20;;;;;;;;;;5054405;28;20510;-75
2022/02/14 02:02:18;;;;;;;43.90;8.88;;;;;;;;;;5053506;28;20028;-77
2022/02/14 02:04:45;;;;;;;34.88;9.00;;;;;;;;;;5061268;28;20110;-76
2022/02/14 02:07:11;;;;;;;40.22;8.32;;;;;;;;;;5074075;28;20028;-76
2022/02/14 02:09:37;;;;;;;34.75;8.40;;;;;;;;;;5073663;28;20046;-76
2022/02/14 02:12:22;;;;;;;43.28;9.02;;;;;;;;;;5072387;28;20029;-76
2022/02/14 02:14:49;;;;;;;31.75;8.30;;;;;;;;;;5055157;28;20461;-76
2022/02/14 02:17:15;;;;;;;40.28;8.75;;;;;;;;;;5073536;28;20017;-76
2022/02/14 02:19:41;;;;;;;42.15;8.60;;;;;;;;;;5055464;28;20491;-76
2022/02/14 02:22:07;;;;;;;37.67;8.10;;;;;;;;;;5073294;28;20027;-76
2022/02/14 02:24:34;;;;;;;42.17;8.55;;;;;;;;;;5073781;28;20489;-76
2022/02/14 02:27:02;;;;;;;34.33;8.45;;;;;;;;;;5055209;28;20031;-76
2022/02/14 02:29:29;;;;;;;31.77;8.35;;;;;;;;;;5055702;28;20028;-76
2022/02/14 02:31:56;;;;;;;44.10;9.15;;;;;;;;;;5073190;28;20066;-76
2022/02/14 02:34:22;;;;;;;36.72;8.85;;;17.10;62.60;;;;;;5055138;28;20029;-76
2022/02/14 02:36:53;;;;;;;35.90;8.35;;;17.50;64.20;;;;;;5073238;28;20021;-76
2022/02/14 02:39:18;;;;;;;35.78;7.20;;;18.10;63.20;;;;;;5073197;28;20032;-76
2022/02/14 02:41:45;;;;;;;35.03;8.38;;;18.10;64.70;;;;;;5077663;28;20012;-76
2022/02/14 02:44:12;;;;;;;39.47;8.50;;;17.60;64.80;;;;;;5093369;28;20074;-76
2022/02/14 02:46:38;;;;;;;45.40;8.90;;;18.00;64.90;;;;;;5093108;28;20440;-76
2022/02/14 02:49:15;;;;;;;40.40;9.10;;;17.60;65.00;;;;;;5055353;28;20032;-76
2022/02/14 02:51:46;;;;;;;39.33;7.93;;;18.70;64.30;;;;;;5054502;28;20058;-76
2022/02/14 02:54:12;;;;;;;40.97;9.15;;;18.10;65.70;;;;;;5054953;28;20043;-76
2022/02/14 02:56:41;;;;;;;32.05;7.78;;;16.90;65.70;;;;;;5055052;28;20426;-76
2022/02/14 02:59:08;;;;;;;36.05;8.32;;;17.40;65.60;;;;;;5072777;28;20028;-76
2022/02/14 03:01:34;;;;;;;29.33;7.53;;;17.90;66.40;;;;;;5054497;28;20058;-76
2022/02/14 03:04:05;;;;;;;47.03;8.48;;;17.10;66.00;;;;;;5054789;28;20032;-77
2022/02/14 03:06:31;;;;;;;34.00;7.63;;;18.20;65.60;;;;;;5072573;28;20494;-77
2022/02/14 03:08:57;;;;;;;39.08;8.07;;;18.00;66.60;;;;;;5089975;28;20024;-77
2022/02/14 03:11:23;;;;;;;38.80;9.40;;;17.60;66.70;;;;;;5092562;28;20035;-77
2022/02/14 03:13:50;;;;;;;39.28;8.57;;;17.40;66.90;;;;;;5092944;28;20032;-77
2022/02/14 03:16:16;;;;;;;40.97;9.18;;;18.50;67.60;;;;;;5074745;28;20024;-77
2022/02/14 03:18:43;;;;;;;39.63;8.93;;;17.80;67.40;;;;;;5081667;28;20031;-77
2022/02/14 03:21:09;;;;;;;34.33;8.30;;;18.90;68.10;;;;;;5071944;28;20024;-77
2022/02/14 03:23:36;;;;;;;35.80;7.80;;;17.30;67.10;;;;;;5071912;28;20376;-75
2022/02/14 03:26:02;;;;;;;33.83;8.30;;;17.30;67.10;;;;;;5054131;28;20032;-76
2022/02/14 03:28:28;;;;;;;40.55;9.32;;;17.90;67.40;;;;;;5054344;28;20458;-76
2022/02/14 03:30:54;;;;;;;41.58;8.40;;;17.90;67.90;;;;;;5072507;28;20056;-76
2022/02/14 03:33:20;;;;;;;35.58;8.15;;;17.90;67.80;;;;;;5071870;28;20035;-76
2022/02/14 03:35:46;;;;;;;38.05;8.43;;;17.90;67.80;;;;;;5072677;28;20031;-74
2022/02/14 03:38:12;;;;;;;41.95;8.32;;;17.80;67.60;;;;;;5071781;28;20344;-74
2022/02/14 03:40:39;;;;;;;42.72;9.60;;;18.00;67.80;;;;;;5072672;28;20032;-74
2022/02/14 03:43:10;;;;;;;35.25;9.05;;;17.80;67.40;;;;;;5070320;28;20047;-74
2022/02/14 03:45:37;;;;;;;37.60;8.10;;;17.00;67.20;;;;;;5073962;28;20109;-74
2022/02/14 03:48:04;;;;;;;38.80;8.60;;;18.10;67.70;;;;;;5092710;28;20032;-74
2022/02/14 03:50:29;;;;;;;38.60;8.38;;;17.80;67.70;;;;;;5092137;28;20032;-74
2022/02/14 03:52:55;;;;;;;35.22;8.45;;;17.80;68.00;;;;;;5077232;28;20028;-74
2022/02/14 03:55:24;;;;;;;41.75;8.15;;;17.80;68.00;;;;;;5072034;28;20438;-74
2022/02/14 03:57:50;;;;;;;44.25;8.88;;;19.20;68.90;;;;;;5071820;28;20020;-74
2022/02/14 04:00:19;;;;;;;35.05;8.70;;;17.50;67.90;;;;;;5072287;28;20451;-74
2022/02/14 04:02:46;;;;;;;41.03;8.50;;;18.30;68.20;;;;;;5054167;28;20447;-74
2022/02/14 04:05:14;;;;;;;39.97;8.95;;;18.10;68.50;;;;;;5071718;28;20063;-75
2022/02/14 04:07:40;;;;;;;41.55;9.70;;;19.50;69.60;;;;;;5053721;28;20505;-75
2022/02/14 04:10:09;;;;;;;38.40;8.60;;;17.40;68.40;;;;;;5071852;28;20032;-76
2022/02/14 04:12:34;;;;;;;40.42;8.73;;;17.90;68.20;;;;;;5054158;28;20021;-76
2022/02/14 04:15:01;;;;;;;34.58;8.68;;;16.70;68.30;;;;;;5053868;28;20031;-75
2022/02/14 04:17:26;;;;;;;44.05;8.82;;;19.20;69.60;;;;;;5072511;28;20052;-76
2022/02/14 04:19:53;;;;;;;46.20;9.45;;;17.80;68.90;;;;;;5092532;28;20024;-75
2022/02/14 04:22:19;;;;;;;36.45;8.57;;;17.80;68.50;;;;;;5073519;28;20021;-76
2022/02/14 04:24:45;;;;;;;34.20;7.60;;;17.20;68.30;;;;;;5062073;28;20491;-76
2022/02/14 04:27:11;;;;;;;40.53;9.63;;;17.80;68.90;;;;;;5053417;28;20052;-76
2022/02/14 04:29:37;;;;;;;42.83;8.48;;;17.60;68.60;;;;;;5072172;28;20106;-76
2022/02/14 04:32:04;;;;;;;41.20;8.82;;;18.80;69.50;;;;;;5071332;28;20036;-76
2022/02/14 04:34:29;;;;;;;40.08;8.52;;;17.80;69.10;;;;;;5071524;28;20025;-76
2022/02/14 04:36:56;;;;;;;47.83;9.52;;;16.90;68.70;;;;;;5075350;28;20074;-76
2022/02/14 04:39:22;;;;;;;36.90;8.05;;;19.60;70.40;;;;;;5057387;28;20371;-76
2022/02/14 04:41:48;;;;;;;40.22;8.45;;;16.90;68.70;;;;;;5062539;28;20016;-75
2022/02/14 04:44:13;;;;;;;43.13;8.52;;;17.70;69.20;;;;;;5095916;28;20547;-76
2022/02/14 04:46:39;;;;;;;36.60;8.02;;;18.70;69.90;;;;;;5095593;28;20498;-76
2022/02/14 04:49:06;;;;;;;40.65;8.52;;;19.20;70.50;;;;;;5077354;28;20083;-76
2022/02/14 04:51:33;;;;;;;41.97;8.45;;;17.20;69.10;;;;;;5076876;28;20050;-76
2022/02/14 04:54:01;;;;;;;42.97;8.82;;;17.90;69.30;;;;;;5077331;28;20036;-76
2022/02/14 04:56:28;;;;;;;43.80;8.93;;;18.70;70.00;;;;;;5088068;28;20028;-76
2022/02/14 04:58:54;;;;;;;47.35;9.35;;;18.00;69.70;;;;;;5074912;28;20029;-76
2022/02/14 05:01:20;;;;;;;44.35;9.05;;;17.60;69.80;;;;;;5074422;28;20482;-76
2022/02/14 05:03:46;;;;;;;46.15;9.27;;;19.10;70.90;;;;;;5074900;28;20044;-76
2022/02/14 05:06:11;;;;;;;35.28;8.25;;;17.90;70.10;;;;;;5075614;28;20398;-72
2022/02/14 05:08:39;;;;;;;37.75;7.93;;;17.30;69.90;;;;;;5080573;28;20032;-72
2022/02/14 05:11:05;;;;;;;41.58;8.30;;;17.70;70.00;;;;;;5087312;28;20020;-72
2022/02/14 05:13:31;;;;;;;37.55;8.70;;;17.80;69.80;;;;;;5094632;28;20031;-72
2022/02/14 05:15:56;;;;;;;47.40;9.77;;;17.20;69.50;;;;;;5076924;28;20024;-72
2022/02/14 05:18:22;;;;;;;36.08;8.48;;;17.30;69.60;;;;;;5074656;28;20033;-72
2022/02/14 05:20:48;;;;;;;38.53;8.70;;;18.50;70.30;;;;;;5056698;28;20108;-72
2022/02/14 05:23:14;;;;;;;46.78;9.27;;;17.80;69.90;;;;;;5081586;28;20024;-72
2022/02/14 05:25:40;;;;;;;42.78;8.70;;;17.80;69.90;;;;;;5095098;28;20024;-72
2022/02/14 05:28:10;;;;;;;42.25;8.77;;;17.80;70.00;;;;;;5092159;28;20058;-72
2022/02/14 05:30:36;;;;;;;42.22;10.93;;;18.00;68.70;;;;;;5090042;28;20047;-72
2022/02/14 05:33:03;;;;;;;42.97;8.93;;;18.00;70.60;;;;;;5076673;28;20032;-73
2022/02/14 05:35:29;;;;;;;40.05;9.15;;;19.40;70.80;;;;;;5088842;28;20021;-73
2022/02/14 05:37:55;;;;;;;42.10;8.65;;;17.90;70.40;;;;;;5092188;28;20456;-73
2022/02/14 05:40:21;;;;;;;37.75;9.50;;;17.00;69.90;;;;;;5086743;28;20051;-73
2022/02/14 05:42:47;;;;;;;47.22;9.18;;;17.70;70.30;;;;;;5088136;28;20370;-73
2022/02/14 05:45:13;;;;;;;46.67;9.27;;;17.90;70.30;;;;;;5094363;28;20490;-73
2022/02/14 05:47:39;;;;;;;39.70;8.27;;;17.90;70.40;;;;;;5094016;28;20474;-73
2022/02/14 05:50:07;;;;;;;46.45;9.93;;;17.40;70.20;;;;;;5093972;28;20406;-73
2022/02/14 05:52:33;;;;;;;53.92;9.82;;;17.90;70.20;;;;;;5094273;28;20020;-73
2022/02/14 05:55:00;;;;;;;44.47;8.63;;;17.80;70.40;;;;;;5094189;28;20073;-73
2022/02/14 05:57:25;;;;;;;44.05;9.25;;;17.90;70.50;;;;;;5094061;28;20502;-73
2022/02/14 05:59:51;;;;;;;42.90;9.02;;;17.90;70.80;;;;;;5093708;28;20028;-73
2022/02/14 06:02:17;;;;;;;44.28;8.38;;;17.40;70.60;;;;;;5074479;28;20073;-73
2022/02/14 06:04:43;;;;;;;36.58;8.15;;;17.30;70.60;;;;;;5073517;28;20074;-73
2022/02/14 06:07:09;;;;;;;44.65;9.32;;;16.90;70.40;;;;;;5075602;28;20067;-73
2022/02/14 06:09:35;;;;;;;45.22;9.02;;;17.90;71.20;;;;;;5093779;28;20056;-73
2022/02/14 06:12:01;;;;;;;52.10;9.05;;;17.90;71.10;;;;;;5093238;28;20032;-73
2022/02/14 06:14:27;;;;;;;50.75;10.00;;;17.90;71.20;;;;;;5086099;28;20024;-73
2022/02/14 06:16:53;;;;;;;46.58;9.57;;;17.80;71.10;;;;;;5073279;28;20499;-73
2022/02/14 06:19:21;;;;;;;44.80;9.55;;;17.40;71.10;;;;;;5073288;28;20027;-73
2022/02/14 06:21:47;;;;;;;43.72;9.02;;;17.80;71.50;;;;;;5072789;28;20024;-73
2022/02/14 06:24:15;;;;;;;37.50;8.40;;;16.90;71.10;;;;;;5073613;28;20025;-73
2022/02/14 06:26:41;;;;;;;42.08;9.10;;;18.30;71.10;;;;;;5073014;28;20058;-73
2022/02/14 06:29:07;;;;;;;44.30;9.13;;;17.90;71.50;;;;;;5073341;28;20035;-73
2022/02/14 06:31:33;;;;;;;41.05;8.25;;;17.40;71.30;;;;;;5072777;28;20101;-73
2022/02/14 06:33:59;;;;;;;40.15;8.68;;;19.30;72.50;;;;;;5054461;28;20185;-73
2022/02/14 06:36:27;;;;;;;43.72;9.38;;;17.80;71.70;;;;;;5073013;28;20052;-73
2022/02/14 06:38:57;;;;;;;42.05;9.30;;;18.00;71.60;;;;;;5072804;28;20020;-73
2022/02/14 06:41:24;;;;;;;42.20;8.88;;;18.70;70.90;;;;;;5074289;28;20429;-74
2022/02/14 06:43:50;;;;;;;45.53;9.95;;;18.10;71.70;;;;;;5092868;28;20504;-73
2022/02/14 06:46:16;;;;;;;44.58;9.48;;;17.30;71.50;;;;;;5093007;28;20028;-73
2022/02/14 06:48:42;;;;;;;42.53;8.80;;;19.20;72.60;;;;;;5092828;28;20077;-73
2022/02/14 06:51:09;;;;;;;35.85;9.07;;;18.60;72.30;;;;;;5093048;28;20050;-73
2022/02/14 06:53:35;;;;;;;36.10;8.40;;;19.20;72.20;;;;;;5074135;28;20494;-73
2022/02/14 06:56:05;;;;;;;38.67;8.27;;;17.50;70.30;;;;;;5074920;28;20482;-73
2022/02/14 06:58:32;;;;;;;25.38;6.78;;;17.70;70.20;;;;;;5092586;28;20038;-73
2022/02/14 07:00:58;;;;;;;32.58;7.38;;;17.90;69.50;;;;;;5074509;28;20028;-73
2022/02/14 07:03:24;;;;;;;24.35;6.78;;;17.00;68.50;;;;;;5092298;28;20020;-73
2022/02/14 07:05:49;;;;;;;22.85;5.57;;;17.20;68.30;;;;;;5081159;28;20094;-73
2022/02/14 07:08:15;;;;;;;26.75;7.13;;;17.90;68.20;;;;;;5071982;28;20028;-73
2022/02/14 07:10:41;;;;;;;26.85;5.95;;;19.20;68.80;;;;;;5072182;28;20036;-73
2022/02/14 07:13:06;;;;;;;29.77;7.28;;;17.60;67.50;;;;;;5072312;28;20043;-73
2022/02/14 07:15:32;;;;;;;25.63;6.38;;;17.90;67.40;;;;;;5088856;28;20020;-73
2022/02/14 07:18:03;;;;;;;25.52;6.93;;;16.90;66.70;;;;;;5092671;28;20016;-73
2022/02/14 07:20:30;;;;;;;27.70;7.53;;;18.70;66.60;;;;;;5092225;28;20425;-73
2022/02/14 07:22:55;;;;;;;34.92;8.20;;;17.40;66.60;;;;;;5092337;28;20020;-73
2022/02/14 07:25:21;;;;;;;29.30;7.07;;;17.80;67.10;;;;;;5092596;28;20565;-73
2022/02/14 07:27:47;;;;;;;34.40;7.57;;;17.80;67.00;;;;;;5092206;28;20390;-73
2022/02/14 07:30:13;;;;;;;30.10;8.57;;;17.80;66.90;;;;;;5092268;28;20104;-73
2022/02/14 07:32:40;;;;;;;31.73;8.35;;;17.90;66.90;;;;;;5092309;28;20042;-73
2022/02/14 07:35:06;;;;;;;38.83;9.43;;;17.70;66.80;;;;;;5092528;28;20398;-73
2022/02/14 07:37:33;;;;;;;46.53;11.40;;;19.10;67.70;;;;;;5084924;28;20024;-73
2022/02/14 07:39:59;;;;;;;37.00;9.23;;;18.10;67.50;;;;;;5071816;28;20048;-73
2022/02/14 07:42:25;;;;;;;39.92;9.43;;;18.10;67.60;;;;;;5053558;28;20506;-73
2022/02/14 07:44:50;;;;;;;36.80;9.13;;;18.00;67.70;;;;;;5054018;28;20021;-73
2022/02/14 07:47:17;;;;;;;33.90;8.55;;;18.90;68.20;;;;;;5071983;28;20029;-73
2022/02/14 07:49:44;;;;;;;32.85;7.97;;;18.30;67.80;;;;;;5066891;28;20473;-73
2022/02/14 07:52:10;;;;;;;37.35;8.55;;;18.00;67.80;;;;;;5065956;28;20035;-73
2022/02/14 07:54:35;;;;;;;34.63;8.07;;;17.70;67.90;;;;;;5071377;28;20035;-73
2022/02/14 07:57:01;;;;;;;27.77;6.78;;;19.60;69.10;;;;;;5052315;28;20497;-73
2022/02/14 07:59:27;;;;;;;31.00;8.73;;;18.00;68.20;;;;;;5051518;28;20017;-73
2022/02/14 08:01:53;;;;;;;29.27;8.13;;;19.60;69.10;;;;;;5049439;28;20036;-74
2022/02/14 08:04:19;;;;;;;26.48;6.45;;;18.10;68.10;;;;;;5050460;28;20052;-74
2022/02/14 08:06:45;;;;;;;27.50;6.82;;;19.50;69.00;;;;;;5064442;28;20021;-74
2022/02/14 08:09:11;;;;;;;27.35;6.63;;;17.30;67.80;;;;;;5079015;28;20154;-75
2022/02/14 08:11:38;;;;;;;27.63;6.57;;;17.20;67.80;;;;;;5074737;28;20140;-75
2022/02/14 08:14:04;;;;;;;24.42;6.70;;;18.20;68.20;;;;;;5064106;28;20024;-73
2022/02/14 08:16:31;;;;;;;21.40;6.05;;;18.10;68.20;;;;;;5076645;28;20077;-72
2022/02/14 08:18:59;;;;;;;15.48;5.00;;;18.20;68.50;;;;;;5071495;28;20081;-73
2022/02/14 08:21:26;;;;;;;21.42;5.70;;;18.00;68.20;;;;;;5081114;28;20028;-73
2022/02/14 08:23:52;;;;;;;17.67;5.22;;;17.20;67.40;;;;;;5071814;28;20032;-73
2022/02/14 08:26:18;;;;;;;15.98;5.57;;;18.00;68.00;;;;;;5057450;28;20033;-73
2022/02/14 08:28:45;;;;;;;17.05;5.00;;;18.10;67.80;;;;;;5070470;28;20471;-72
2022/02/14 08:31:11;;;;;;;13.05;4.15;;;18.10;67.60;;;;;;5074860;28;20484;-72
2022/02/14 08:33:38;;;;;;;15.82;4.95;;;17.60;67.60;;;;;;5073114;28;20111;-72
2022/02/14 08:36:05;;;;;;;14.93;4.65;;;18.40;68.10;;;;;;5052424;28;20410;-73
2022/02/14 08:38:32;;;;;;;13.45;4.28;;;17.80;67.60;;;;;;5060710;28;20031;-72
2022/02/14 08:40:58;;;;;;;11.07;4.07;;;17.80;67.00;;;;;;5057962;28;20394;-73
2022/02/14 08:43:24;;;;;;;10.95;3.33;;;17.60;66.10;;;;;;5070220;28;20035;-73
2022/02/14 08:45:50;;;;;;;5.20;2.58;;;17.00;65.10;;;;;;5075488;28;20047;-73
2022/02/14 08:48:17;;;;;;;8.13;2.30;;;18.00;63.90;;;;;;5059734;28;20033;-72
2022/02/14 08:50:44;;;;;;;7.97;1.85;;;16.90;61.80;;;;;;5071221;28;20444;-72
2022/02/14 08:53:10;;;;;;;6.13;1.90;;;18.30;61.50;;;;;;5054314;28;20025;-72
2022/02/14 08:55:37;;;;;;;5.03;1.73;;;18.20;60.80;;;;;;5072028;28;20055;-72
2022/02/14 08:58:03;;;;;;;3.08;1.40;;;20.00;61.70;;;;;;5060256;28;20043;-72
2022/02/14 09:00:30;;;;;;;3.67;1.60;;;18.20;60.00;;;;;;5065388;28;20028;-72
2022/02/14 09:02:56;;;;;;;3.33;1.10;;;18.30;59.70;;;;;;5072913;28;20027;-71
2022/02/14 09:05:23;;;;;;;6.38;1.50;;;18.10;59.40;;;;;;5030131;28;1244897;-71
2022/02/14 09:07:50;;;;;;;7.32;1.50;;;17.50;59.30;;;;;;5072228;28;20044;-71
2022/02/14 09:10:20;;;;;;;6.65;2.17;;;17.80;58.30;;;;;;5072537;28;20111;-71
2022/02/14 09:12:47;;;;;;;4.15;1.65;;;18.10;58.70;;;;;;5073642;28;20013;-72
2022/02/14 09:15:13;;;;;;;6.28;1.77;;;18.40;59.70;;;;;;5079574;28;20033;-71
2022/02/14 09:17:40;;;;;;;4.30;1.40;;;18.00;58.20;;;;;;5055036;28;20383;-70
2022/02/14 09:20:07;;;;;;;4.18;1.40;;;17.80;57.60;;;;;;5060052;28;20043;-72
2022/02/14 09:22:32;;;;;;;4.50;1.15;;;18.00;57.80;;;;;;5071208;28;20024;-72
2022/02/14 09:24:58;;;;;;;2.55;0.90;;;17.30;56.90;;;;;;5061929;28;20125;-73
2022/02/14 09:27:24;;;;;;;1.98;0.95;;;17.90;56.40;;;;;;5065925;28;20592;-72
2022/02/14 09:29:50;;;;;;;4.82;1.55;;;18.40;57.30;;;;;;5069623;28;20493;-73
2022/02/14 09:32:21;;;;;;;2.53;1.10;;;17.90;57.00;;;;;;5055556;28;20025;-73
2022/02/14 09:34:47;;;;;;;2.58;0.90;;;18.20;57.40;;;;;;5062177;28;20035;-72
2022/02/14 09:37:15;;;;;;;3.33;0.98;;;18.50;55.90;;;;;;5062311;28;20036;-72
2022/02/14 09:39:41;;;;;;;3.22;1.17;;;18.50;56.50;;;;;;5058235;28;20036;-72
2022/02/14 09:42:08;;;;;;;4.70;1.30;;;18.00;56.90;;;;;;5061964;28;20054;-72
2022/02/14 09:44:35;;;;;;;8.85;1.10;;;17.90;56.70;;;;;;5045709;28;20124;-72
2022/02/14 09:47:04;;;;;;;2.25;0.88;;;18.50;56.80;;;;;;5061790;28;20037;-72
2022/02/14 09:49:31;;;;;;;3.15;0.90;;;18.50;55.60;;;;;;5066372;28;20040;-71
2022/02/14 09:51:56;;;;;;;1.23;0.73;;;17.40;56.20;;;;;;5071631;28;20391;-72
2022/02/14 09:54:24;;;;;;;2.58;0.85;;;17.80;55.50;;;;;;5066775;28;20041;-72
2022/02/14 09:56:50;;;;;;;1.83;0.85;;;17.90;55.20;;;;;;5074829;28;20024;-73
2022/02/14 09:59:16;;;;;;;0.90;0.63;;;18.40;55.20;;;;;;5053353;28;20060;-75
2022/02/14 10:01:43;;;;;;;1.10;0.50;;;18.40;55.20;;;;;;5056224;28;20632;-77
2022/02/14 10:04:09;;;;;;;4.18;0.68;;;18.40;55.00;;;;;;5053075;28;20051;-79
2022/02/14 10:06:38;;;;;;;1.85;0.57;;;17.30;53.70;;;;;;5043274;28;20028;-76
2022/02/14 10:09:24;;;;;;;1.20;0.57;;;19.30;53.90;;;;;;5047788;28;20056;-78
2022/02/14 10:12:05;;;;;;;1.35;0.60;;;19.80;52.80;;;;;;5059282;28;20028;-75
2022/02/14 10:14:32;;;;;;;1.48;0.50;;;16.70;51.70;;;;;;5067325;28;20040;-77
2022/02/14 10:17:12;;;;;;;1.52;0.60;;;19.40;55.00;;;;;;5086768;28;20387;-76
2022/02/14 10:19:55;;;;;;;0.57;0.30;;;19.20;52.80;;;;;;5076894;28;20374;-76
2022/02/14 10:22:20;;;;;;;0.98;0.30;;;18.80;51.90;;;;;;5041742;28;20030;-78
2022/02/14 10:24:46;;;;;;;0.95;0.40;;;17.60;53.70;;;;;;5054438;28;20116;-78
2022/02/14 10:27:13;;;;;;;0.80;0.40;;;18.20;55.30;;;;;;5052887;28;20068;-76
2022/02/14 10:29:41;;;;;;;0.75;0.40;;;18.60;54.70;;;;;;5040035;28;20042;-77
2022/02/14 10:32:08;;;;;;;1.17;0.35;;;18.10;54.10;;;;;;5052721;28;20074;-77
2022/02/14 10:34:39;;;;;;;3.25;0.73;;;17.80;54.80;;;;;;5052414;28;20036;-77
2022/02/14 10:37:07;;;;;;;3.75;0.63;;;18.30;54.20;;;;;;5054670;28;20027;-77
2022/02/14 10:39:33;;;;;;;4.93;0.60;;;18.50;55.70;;;;;;5039362;28;20024;-77
2022/02/14 10:42:08;;;;;;;1.70;0.63;;;17.20;55.20;;;;;;5037030;28;20024;-76
2022/02/14 10:47:27;;;;;;;1.23;0.40;;;18.90;55.80;;;;;;5050647;28;20068;-76
2022/02/14 10:50:15;;;;;;;2.25;0.50;;;18.90;56.60;;;;;;5061125;28;20112;-75
2022/02/14 10:52:46;;;;;;;3.85;0.55;;;19.10;54.30;;;;;;5055904;28;20055;-77
2022/02/14 10:55:17;;;;;;;6.13;1.60;;;19.10;56.90;;;;;;5061341;28;20115;-76
2022/02/14 10:57:45;;;;;;;2.20;0.60;;;18.60;56.10;;;;;;5050550;28;20411;-76
2022/02/14 11:00:22;;;;;;;0.95;0.75;;;19.20;56.90;;;;;;5050554;28;20642;-75
2022/02/14 11:02:51;;;;;;;1.30;0.40;;;19.30;55.40;;;;;;5058155;28;20021;-76
2022/02/14 11:05:19;;;;;;;2.53;1.00;;;19.60;57.20;;;;;;5059278;28;20118;-76
2022/02/14 11:07:46;;;;;;;3.40;1.10;;;20.00;57.60;;;;;;5038730;28;20032;-76
2022/02/14 11:10:16;;;;;;;7.03;2.08;;;22.90;59.50;;;;;;5068268;28;20057;-76
2022/02/14 11:12:51;;;;;;;3.42;0.90;;;18.50;57.00;;;;;;5046794;28;20121;-76
2022/02/14 11:15:17;;;;;;;6.63;1.13;;;19.60;56.20;;;;;;5067146;28;20024;-76
2022/02/14 11:17:49;;;;;;;2.60;0.80;;;19.40;57.80;;;;;;5060602;28;20974;-77
2022/02/14 11:20:15;;;;;;;2.38;1.00;;;19.50;56.30;;;;;;5048735;28;20465;-77
2022/02/14 11:22:47;;;;;;;2.83;0.65;;;23.80;59.50;;;;;;5061889;28;20047;-77
2022/02/14 11:25:57;;;;;;;1.25;0.40;;;19.30;56.00;;;;;;5062323;28;20032;-76
2022/02/14 11:28:41;;;;;;;2.55;0.90;;;20.30;55.30;;;;;;5052157;28;20048;-76
2022/02/14 11:31:11;;;;;;;;;;;20.30;55.60;;;;;;5058034;28;20039;-77
2022/02/14 11:33:40;;;;;;;4.78;1.88;;;21.20;56.00;;;;;;5059974;28;19919;-76
2022/02/14 11:36:12;;;;;;;8.13;2.33;;;19.40;56.70;;;;;;5061720;28;20054;-76
2022/02/14 11:38:48;;;;;;;2.50;1.17;;;19.80;56.90;;;;;;5048209;28;20105;-76
2022/02/14 11:41:36;;;;;;;5.00;0.85;;;19.20;55.10;;;;;;5035142;28;20075;-76
2022/02/14 11:44:16;;;;;;;3.95;0.85;;;19.80;55.20;;;;;;5065280;28;20100;-79
2022/02/14 11:46:54;;;;;;;2.40;0.60;;;19.80;54.70;;;;;;5027735;28;20147;-78
2022/02/14 11:49:47;;;;;;;1.45;0.65;;;20.20;54.80;;;;;;5027937;28;20025;-77
2022/02/14 11:52:25;;;;;;;2.95;0.63;;;20.10;54.70;;;;;;5053298;28;20094;-77
2022/02/14 11:54:51;;;;;;;3.00;0.98;;;20.00;55.10;;;;;;5030943;28;20684;-76
2022/02/14 11:57:20;;;;;;;3.35;1.00;;;20.30;57.60;;;;;;5032713;28;20028;-77
2022/02/14 11:59:46;;;;;;;4.15;1.10;;;18.70;56.00;;;;;;5046473;28;20034;-76
2022/02/14 12:02:13;;;;;;;3.97;0.70;;;18.40;57.00;;;;;;5044692;28;20025;-75
2022/02/14 12:04:44;;;;;;;1.63;0.50;;;23.80;59.50;;;;;;5027121;28;20064;-76
2022/02/14 12:07:23;;;;;;;2.78;0.98;;;19.70;57.30;;;;;;5032885;28;20029;-76
2022/02/14 12:09:57;;;;;;;3.45;1.45;;;20.10;55.80;;;;;;5086175;28;20032;-76
2022/02/14 12:13:03;;;;;;;2.13;1.08;;;20.80;56.70;;;;;;5073264;28;20078;-76
2022/02/14 12:20:52;;;;;;;3.42;0.85;;;18.50;54.10;;;;;;5046221;28;20162;-76
2022/02/14 12:23:39;;;;;;;5.20;1.33;;;23.40;55.40;;;;;;5046228;28;20029;-76
2022/02/14 12:26:07;;;;;;;7.95;1.10;;;21.80;55.70;;;;;;5057575;28;20040;-76
2022/02/14 12:28:34;;;;;;;2.80;0.95;;;19.50;56.90;;;;;;5060267;28;20074;-76
2022/02/14 12:31:00;;;;;;;3.45;1.08;;;23.60;59.60;;;;;;5055202;28;20051;-75
2022/02/14 12:33:26;;;;;;;14.90;1.30;;;22.60;59.40;;;;;;5070738;28;20052;-77
2022/02/14 12:35:55;;;;;;;3.75;0.85;;;18.40;57.70;;;;;;5051496;28;20025;-77
2022/02/14 12:38:34;;;;;;;2.75;1.15;;;19.90;57.80;;;;;;5074770;28;20496;-74
2022/02/14 12:41:01;;;;;;;6.05;1.45;;;20.00;56.50;;;;;;5047238;28;20017;-77
2022/02/14 12:43:28;;;;;;;9.38;1.60;;;20.20;58.90;;;;;;5057536;28;20163;-77
2022/02/14 12:45:59;;;;;;;5.10;2.10;;;20.30;58.40;;;;;;5062143;28;20017;-72
2022/02/14 12:48:33;;;;;;;2.85;1.00;;;19.40;58.40;;;;;;5044375;28;20044;-73
2022/02/14 12:51:04;;;;;;;2.83;1.23;;;20.80;58.10;;;;;;5058344;28;20371;-75
2022/02/14 12:53:34;;;;;;;5.53;1.42;;;18.40;57.30;;;;;;5065992;28;20483;-76
2022/02/14 12:56:19;;;;;;;4.50;1.10;;;23.90;61.00;;;;;;5065598;28;20017;-78
2022/02/14 12:58:48;;;;;;;3.17;1.20;;;20.10;56.60;;;;;;5050338;28;20032;-78
2022/02/14 13:01:14;;;;;;;3.80;0.90;;;19.40;58.10;;;;;;5071667;28;20024;-77
2022/02/14 13:03:42;;;;;;;2.95;0.80;;;23.60;60.70;;;;;;5067568;28;20031;-82
2022/02/14 13:06:07;;;;;;;3.65;1.00;;;20.30;58.40;;;;;;5051747;28;20045;-77
2022/02/14 13:08:36;;;;;;;2.25;1.13;;;19.70;58.80;;;;;;5052753;28;20367;-76
2022/02/14 13:11:04;;;;;;;3.63;1.13;;;23.10;60.60;;;;;;5071428;28;20025;-79
2022/02/14 13:13:41;;;;;;;9.52;1.23;;;23.40;60.80;;;;;;5061051;28;20028;-74